AirNav   Everest Fuels
 
 456 users online  

81PN Armstrong County Memorial Hospital Heliport
Kittanning, Pennsylvania, USA

GOING TO KITTANNING?


FAA INFORMATION EFFECTIVE 18 JUNE 2020

Location

FAA Identifier: 81PN
Lat/Long: 40-48-29.5600N 079-33-48.6500W
40-48.492667N 079-33.810833W
40.8082111,-79.5635139
(estimated)
Elevation: 1157 ft. / 353 m (estimated)
Variation: 09W (2000)
From city: 2 miles W of KITTANNING, PA
Time zone: UTC -4 (UTC -5 during Standard Time)
Zip code: 16201

Heliport Operations

Heliport use: Private use, MEDICAL USE.
Activation date: 02/1982
Control tower: no
ARTCC: CLEVELAND CENTER
FSS: ALTOONA FLIGHT SERVICE STATION
NOTAMs facility: FDC (NOTAM-D service not available)
Attendance: UNATNDD
Wind indicator: yes
Segmented circle: no

Heliport Communications

WX AWOS-3PT at BTP (18 nm W): 121.450 (724-586-6434)
  • APCH/DEP SVC PRVDD BY CLEVELAND ARTCC (ZOB) 126.725/291.65 (DUBOISRCAG).

Nearby radio navigation aids

VOR radial/distance  VOR name  Freq  Var
CIPr199/20.8CLARION VOR/DME112.9006W
EWCr100/29.4ELLWOOD CITY VOR/DME115.8008W
AGCr043/38.5ALLEGHENY VOR/DME110.0009W

Heliport Services

Runway Information

Helipad H1

Dimensions: 70 x 70 ft. / 21 x 21 m
Surface: asphalt, in fair condition
Latitude: 40-48.492667N
Longitude: 079-33.810833W
Elevation: 1157.0 ft.
Traffic pattern: leftleft
Markings: none, in fair condition

Heliport Ownership and Management from official FAA records

Ownership: Privately-owned
Owner: ARMSTRONG COUNTY MEML HOSP
ONE NOLTE DRIVE
KITTANNING, PA 16201
Phone (724) 543-8500
Manager: GUY EDWARDS
ONE NOLTE DRIVE
KITTANNING, PA 16201
Phone (724) 543-8500

Heliport Operational Statistics

Aircraft based on the field: 1
Helicopters: 1
    

Additional Remarks

FOR CD CTC CLEVELAND ARTCC AT 440-774-0234.

Instrument Procedures

There are no published instrument procedures at 81PN.

Some nearby airports with instrument procedures:

6P7 - McVille Airport (5 nm S)
KBTP - Pittsburgh/Butler Regional Airport (18 nm W)
KIDI - Indiana County Airport (Jimmy Stewart Field) (24 nm SE)
KAXQ - Clarion County Airport (26 nm N)
KPJC - Zelienople Municipal Airport (27 nm W)
 
Loc | Ops | Rwys | IFR | FBO | Links
Com | Nav | Svcs | Stats | Notes
Area around 81PN (Armstrong County Memorial Hospital Heliport)
 
Road maps at: MapQuest Bing Google
 
Aerial photo
No photo
 
Sectional chart

 
Airport distance calculator
Flying to Armstrong County Memorial Hospital Heliport? Find the distance to fly.

From to 81PN

Sunrise and sunset
Times for 05-Jul-2020
 Local
(UTC-4)
 Zulu
(UTC)
Morning civil twilight05:2109:21
Sunrise05:5409:54
Sunset20:5200:52
Evening civil twilight21:2501:25

Current date and time
Zulu (UTC)  05-Jul-2020 04:45:07
Local (UTC-4)  05-Jul-2020 00:45:07
 
METAR
KBTP 
18nm W 
050356Z AUTO 00000KT 10SM CLR A3001 RMK AO2 SLPNO FZRANO PNO $
KIDI 
25nm SE 
050435Z AUTO 00000KT 10SM CLR 21/17 A3004 RMK A01
KAGC 
32nm SW 
050353Z 36004KT 10SM CLR 24/16 A2999 RMK AO2 SLP148 T02440156
KLBE 
33nm S 
050435Z AUTO 00000KT 10SM CLR 21/18 A2999 RMK AO2
TAF
KAGC 
32nm SW 
041726Z 0418/0518 33004KT P6SM SCT050= TAF KDUJ 041726Z 0418/0518 36005KT P6SM SCT060
KLBE 
33nm S 
041726Z 0418/0518 30005KT P6SM SCT050
KFKL 
36nm N 
041726Z 0418/0518 35004KT P6SM SCT060
KDUJ 
37nm NE 
041726Z 0418/0518 36005KT P6SM SCT060
KPIT 
37nm SW 
050301Z 0503/0606 02003KT P6SM SCT250 FM051600 08003KT P6SM SCT050
KBVI 
38nm W 
041726Z 0418/0518 35005KT P6SM SCT050
NOTAMs
Click for the latest NOTAMs
NOTAMs are issued by the DoD/FAA and will open in a separate window not controlled by AirNav.

 

 
 

Would you like to see your business listed on this page?

 If your business provides an interesting product or service to pilots, flight crews, aircraft, or users of the Armstrong County Memorial Hospital Heliport, you should consider listing it here.  To start the listing process, click on the button below
 
Add a business
 

Other Pages about Armstrong County Memorial Hospital Heliport

Update a link
 
Copyright © AirNav, LLC. All rights reserved. Privacy Policy  Contact